Time;durP1;ratioP1;P1;durP2;ratioP2;P2;SDS_P1;SDS_P2;PMS_P1;PMS_P2;Temp;Humidity;BMP_temperature;BMP_pressure;BME280_temperature;BME280_humidity;BME280_pressure;Samples;Min_cycle;Max_cycle;Signal;HPM_P1;HPM_P2
2023/05/30 00:01:00;;;;;;;13.40;2.08;;;10.90;93.90;;;;;;4970832;28;20516;-64
2023/05/30 00:03:26;;;;;;;15.68;2.65;;;11.00;93.60;;;;;;4989260;28;20131;-64
2023/05/30 00:05:52;;;;;;;12.98;2.63;;;10.90;92.20;;;;;;4988056;28;20549;-64
2023/05/30 00:08:18;;;;;;;9.70;3.00;;;10.90;92.20;;;;;;4988398;28;20058;-65
2023/05/30 00:10:44;;;;;;;11.63;2.33;;;10.90;93.00;;;;;;4989720;28;20046;-65
2023/05/30 00:13:10;;;;;;;10.77;2.80;;;10.90;91.90;;;;;;4988648;28;20481;-64
2023/05/30 00:15:36;;;;;;;13.85;2.63;;;10.90;92.10;;;;;;4987862;28;20050;-64
2023/05/30 00:18:02;;;;;;;12.63;2.92;;;10.90;92.00;;;;;;4989215;28;20034;-65
2023/05/30 00:20:29;;;;;;;11.68;2.42;;;10.90;91.90;;;;;;4954561;28;20133;-65
2023/05/30 00:22:58;;;;;;;19.83;3.30;;;10.90;93.40;;;;;;4975550;28;20047;-64
2023/05/30 00:25:24;;;;;;;16.03;3.13;;;10.90;94.20;;;;;;4982876;28;20051;-65
2023/05/30 00:27:51;;;;;;;7.30;1.67;;;10.90;92.30;;;;;;4997744;28;20066;-64
2023/05/30 00:30:17;;;;;;;11.07;1.98;;;10.90;92.60;;;;;;4975165;28;20598;-65
2023/05/30 00:32:43;;;;;;;16.70;2.65;;;10.90;92.90;;;;;;4985036;28;20046;-65
2023/05/30 00:35:09;;;;;;;15.88;2.70;;;10.90;91.10;;;;;;4988503;28;20503;-64
2023/05/30 00:37:35;;;;;;;12.77;2.78;;;10.80;91.00;;;;;;4987785;28;20065;-64
2023/05/30 00:40:01;;;;;;;12.02;2.63;;;10.90;93.10;;;;;;4988213;28;20042;-64
2023/05/30 00:42:27;;;;;;;15.20;2.88;;;10.90;93.80;;;;;;4976205;28;20058;-64
2023/05/30 00:44:53;;;;;;;10.60;2.60;;;10.90;93.10;;;;;;4983046;28;20441;-64
2023/05/30 00:47:19;;;;;;;11.63;2.47;;;10.90;91.70;;;;;;4988845;28;20141;-65
2023/05/30 00:49:46;;;;;;;9.80;2.40;;;10.90;92.40;;;;;;4989223;28;20401;-65
2023/05/30 00:52:13;;;;;;;10.57;2.40;;;10.90;92.90;;;;;;4986759;28;20133;-64
2023/05/30 00:54:43;;;;;;;10.77;2.67;;;10.90;92.30;;;;;;4982783;28;20038;-65
2023/05/30 00:57:10;;;;;;;7.30;2.30;;;10.90;92.80;;;;;;4986682;28;20042;-65
2023/05/30 00:59:36;;;;;;;8.88;2.65;;;10.80;92.90;;;;;;4988332;28;20064;-65
2023/05/30 01:02:03;;;;;;;13.05;2.22;;;10.80;91.10;;;;;;4979001;28;20051;-64
2023/05/30 01:04:29;;;;;;;10.35;2.58;;;10.80;92.00;;;;;;4985968;28;20042;-64
2023/05/30 01:06:55;;;;;;;8.45;2.42;;;10.80;91.20;;;;;;4988512;28;20058;-65
2023/05/30 01:09:21;;;;;;;10.65;1.90;;;10.80;92.40;;;;;;4986426;28;20575;-65
2023/05/30 01:12:05;;;;;;;13.70;2.72;;;10.80;92.30;;;;;;4986145;28;20097;-65
2023/05/30 01:14:37;;;;;;;9.60;2.20;;;10.80;93.30;;;;;;4986645;28;20053;-65
2023/05/30 01:17:16;;;;;;;11.25;1.98;;;10.90;92.80;;;;;;4987760;28;20405;-64
2023/05/30 01:19:51;;;;;;;9.68;2.20;;;10.80;90.20;;;;;;4988625;28;20099;-65
2023/05/30 01:22:54;;;;;;;10.13;2.00;;;10.80;91.50;;;;;;4987498;28;20054;-65
2023/05/30 01:25:32;;;;;;;16.27;3.22;;;10.80;90.20;;;;;;4959298;28;20046;-65
2023/05/30 01:28:12;;;;;;;11.88;2.60;;;10.80;91.10;;;;;;4986037;28;20126;-65
2023/05/30 01:30:53;;;;;;;13.52;2.78;;;10.80;92.10;;;;;;4978785;28;20050;-65
2023/05/30 01:33:20;;;;;;;17.33;3.03;;;10.80;90.50;;;;;;4965071;28;20054;-64
2023/05/30 01:35:46;;;;;;;11.70;1.90;;;10.80;90.20;;;;;;4980031;28;20112;-65
2023/05/30 01:38:13;;;;;;;9.88;2.00;;;10.80;90.90;;;;;;4987370;28;20046;-66
2023/05/30 01:40:42;;;;;;;16.25;3.08;;;10.80;91.30;;;;;;4988370;28;20061;-65
2023/05/30 01:43:19;;;;;;;11.70;2.22;;;10.80;89.20;;;;;;4987166;28;20069;-65
2023/05/30 01:46:25;;;;;;;13.35;3.20;;;10.80;90.70;;;;;;4987473;28;20042;-65
2023/05/30 01:49:14;;;;;;;11.90;2.97;;;10.80;91.30;;;;;;4964747;28;20520;-64
2023/05/30 01:52:06;;;;;;;4.88;1.83;;;10.80;91.70;;;;;;4986917;28;20505;-64
2023/05/30 01:54:34;;;;;;;13.40;3.17;;;10.80;91.90;;;;;;4988039;28;20058;-64
2023/05/30 01:57:13;;;;;;;11.50;2.35;;;10.80;91.20;;;;;;4986251;28;20050;-64
2023/05/30 01:59:40;;;;;;;8.38;2.95;;;10.80;91.90;;;;;;4987433;28;20081;-64
2023/05/30 02:02:08;;;;;;;11.27;2.65;;;10.80;90.00;;;;;;4980645;28;20101;-64
2023/05/30 02:04:35;;;;;;;10.85;2.47;;;10.80;90.30;;;;;;4985852;28;20035;-64
2023/05/30 02:07:02;;;;;;;13.27;3.10;;;10.80;90.50;;;;;;4986921;28;20481;-64
2023/05/30 02:09:29;;;;;;;8.93;2.33;;;10.80;90.70;;;;;;4969378;28;20060;-64
2023/05/30 02:11:55;;;;;;;8.35;2.60;;;10.80;90.70;;;;;;4987425;28;20493;-65
2023/05/30 02:14:22;;;;;;;13.77;2.50;;;10.80;91.60;;;;;;4986600;28;20069;-65
2023/05/30 02:16:48;;;;;;;14.63;2.67;;;10.80;92.20;;;;;;4986603;28;20097;-65
2023/05/30 02:19:14;;;;;;;10.30;2.45;;;10.80;92.90;;;;;;4987004;28;20061;-65
2023/05/30 02:21:40;;;;;;;15.55;2.78;;;10.70;93.30;;;;;;4981350;28;20051;-64
2023/05/30 02:24:07;;;;;;;16.98;3.58;;;10.70;93.90;;;;;;4976985;28;20226;-65
2023/05/30 02:26:36;;;;;;;17.77;3.80;;;10.70;94.40;;;;;;4986652;28;20046;-65
2023/05/30 02:29:02;;;;;;;14.00;2.37;;;10.70;94.80;;;;;;4985744;28;20408;-65
2023/05/30 02:31:28;;;;;;;13.63;2.72;;;10.70;95.40;;;;;;4980274;28;20301;-65
2023/05/30 02:33:53;;;;;;;10.10;2.40;;;10.70;95.20;;;;;;4977907;28;20046;-65
2023/05/30 02:36:19;;;;;;;8.82;2.83;;;10.70;95.10;;;;;;4985856;28;20057;-64
2023/05/30 02:38:46;;;;;;;10.45;2.67;;;10.70;95.70;;;;;;4986719;28;20049;-64
2023/05/30 02:41:12;;;;;;;12.20;2.67;;;10.70;96.10;;;;;;4986594;28;20042;-65
2023/05/30 02:43:40;;;;;;;16.35;2.85;;;10.70;96.80;;;;;;4986441;28;20057;-65
2023/05/30 02:46:07;;;;;;;15.63;2.88;;;10.70;97.70;;;;;;4981615;28;20141;-65
2023/05/30 02:48:33;;;;;;;18.00;3.08;;;10.80;98.50;;;;;;4981565;28;20133;-64
2023/05/30 02:50:58;;;;;;;12.00;2.95;;;10.80;97.90;;;;;;4986690;28;20138;-64
2023/05/30 02:53:24;;;;;;;14.90;3.20;;;10.80;97.60;;;;;;4975543;28;20105;-65
2023/05/30 02:55:50;;;;;;;10.80;2.53;;;10.80;98.00;;;;;;4969156;28;20061;-64
2023/05/30 02:58:15;;;;;;;18.65;3.58;;;10.90;98.10;;;;;;4986401;28;20062;-65
2023/05/30 03:00:42;;;;;;;15.75;2.78;;;10.90;98.40;;;;;;4985875;28;20077;-65
2023/05/30 03:03:09;;;;;;;17.67;2.75;;;10.90;97.70;;;;;;4983232;28;20042;-65
2023/05/30 03:05:35;;;;;;;16.88;2.80;;;10.90;98.30;;;;;;4984862;28;20038;-65
2023/05/30 03:08:02;;;;;;;11.20;2.60;;;10.90;98.20;;;;;;4985400;28;20042;-65
2023/05/30 03:10:27;;;;;;;15.15;2.70;;;11.00;98.10;;;;;;4985722;28;20085;-65
2023/05/30 03:12:53;;;;;;;14.38;2.75;;;11.00;97.90;;;;;;4978113;28;20069;-65
2023/05/30 03:15:21;;;;;;;11.45;2.45;;;11.00;98.00;;;;;;4986246;28;20043;-65
2023/05/30 03:17:47;;;;;;;19.60;2.85;;;11.00;98.40;;;;;;4986117;28;20073;-65
2023/05/30 03:20:13;;;;;;;16.15;3.40;;;11.00;99.00;;;;;;4979607;28;20465;-64
2023/05/30 03:22:41;;;;;;;10.80;2.40;;;11.00;98.50;;;;;;4970917;28;20157;-64
2023/05/30 03:25:08;;;;;;;17.95;2.55;;;11.00;98.60;;;;;;4984854;28;20053;-65
2023/05/30 03:27:34;;;;;;;17.60;3.92;;;11.00;99.30;;;;;;4981161;28;20382;-64
2023/05/30 03:30:04;;;;;;;15.02;3.08;;;11.00;99.90;;;;;;4982852;28;20050;-65
2023/05/30 03:32:31;;;;;;;19.13;3.25;;;11.10;99.90;;;;;;4972044;28;20134;-65
2023/05/30 03:34:57;;;;;;;15.73;2.45;;;11.10;99.90;;;;;;4968191;28;20058;-65
2023/05/30 03:37:23;;;;;;;15.82;2.85;;;11.10;99.90;;;;;;4980531;28;20050;-65
2023/05/30 03:39:49;;;;;;;14.23;2.33;;;11.10;99.90;;;;;;4953628;28;20110;-65
2023/05/30 03:42:15;;;;;;;13.85;2.60;;;11.10;99.90;;;;;;4976791;28;20049;-64
2023/05/30 03:44:40;;;;;;;14.50;2.83;;;11.10;99.90;;;;;;4970117;28;20493;-65
2023/05/30 03:47:06;;;;;;;16.42;2.42;;;11.10;99.90;;;;;;4970359;28;20372;-65
2023/05/30 03:49:32;;;;;;;14.02;2.97;;;11.10;99.90;;;;;;4969678;28;20113;-65
2023/05/30 03:51:57;;;;;;;15.48;3.30;;;11.10;99.90;;;;;;4982324;28;20457;-65
2023/05/30 03:54:23;;;;;;;8.75;2.30;;;11.20;99.90;;;;;;4972994;28;20042;-65
2023/05/30 03:56:49;;;;;;;11.25;2.55;;;11.20;99.90;;;;;;4969536;28;20117;-64
2023/05/30 03:59:15;;;;;;;11.07;2.28;;;11.20;99.90;;;;;;4976648;28;20043;-64
2023/05/30 04:01:41;;;;;;;17.60;2.95;;;11.20;99.90;;;;;;4956370;28;20478;-64
2023/05/30 04:04:07;;;;;;;13.52;2.78;;;11.20;99.90;;;;;;4969518;28;20085;-64
2023/05/30 04:06:34;;;;;;;7.35;2.40;;;11.20;99.90;;;;;;4969120;28;20060;-64
2023/05/30 04:09:03;;;;;;;18.63;2.80;;;11.20;99.90;;;;;;4971611;28;20046;-64
2023/05/30 04:11:29;;;;;;;15.13;3.30;;;11.20;99.90;;;;;;4989357;28;20046;-64
2023/05/30 04:13:55;;;;;;;14.48;2.80;;;11.20;99.90;;;;;;4985071;28;20038;-64
2023/05/30 04:16:21;;;;;;;16.33;2.63;;;11.20;99.90;;;;;;4988334;28;20065;-65
2023/05/30 04:18:47;;;;;;;14.25;3.15;;;11.20;99.90;;;;;;4988817;28;20054;-65
2023/05/30 04:21:14;;;;;;;10.68;2.60;;;11.20;99.90;;;;;;4989684;28;20038;-65
2023/05/30 04:23:41;;;;;;;13.75;2.53;;;11.30;99.90;;;;;;4955418;28;20086;-64
2023/05/30 04:26:10;;;;;;;11.80;2.72;;;11.20;99.90;;;;;;4988611;28;20038;-65
2023/05/30 04:28:39;;;;;;;17.10;3.10;;;11.20;99.90;;;;;;4988764;28;20042;-65
2023/05/30 04:31:09;;;;;;;16.87;3.10;;;11.20;99.90;;;;;;4969640;28;20128;-65
2023/05/30 04:33:35;;;;;;;12.73;2.45;;;11.20;99.90;;;;;;4966257;28;20097;-64
2023/05/30 04:36:05;;;;;;;20.25;3.17;;;11.20;99.90;;;;;;4983881;28;20046;-64
2023/05/30 04:38:37;;;;;;;13.20;2.28;;;11.20;99.90;;;;;;4981736;28;20505;-65
2023/05/30 04:41:04;;;;;;;18.95;2.55;;;11.20;99.90;;;;;;4982093;28;20516;-64
2023/05/30 04:43:31;;;;;;;11.38;2.58;;;11.20;99.90;;;;;;4988592;28;20092;-64
2023/05/30 04:46:00;;;;;;;17.67;3.05;;;11.20;99.90;;;;;;4980281;28;20039;-64
2023/05/30 04:48:28;;;;;;;16.67;2.55;;;11.20;99.90;;;;;;4976825;28;20056;-65
2023/05/30 04:50:54;;;;;;;7.60;2.10;;;11.20;99.90;;;;;;4971847;28;20050;-65
2023/05/30 04:53:20;;;;;;;7.10;2.20;;;11.20;99.90;;;;;;4986851;28;20108;-64
2023/05/30 04:55:46;;;;;;;7.57;1.75;;;11.20;99.90;;;;;;4987987;28;20421;-64
2023/05/30 04:58:13;;;;;;;8.70;1.92;;;11.20;99.90;;;;;;4987979;28;20089;-64
2023/05/30 05:00:39;;;;;;;8.57;1.90;;;11.20;99.90;;;;;;4988297;28;20038;-65
2023/05/30 05:03:08;;;;;;;9.98;2.50;;;11.20;99.90;;;;;;4979880;28;20527;-65
2023/05/30 05:05:34;;;;;;;17.33;2.75;;;11.20;99.90;;;;;;4975187;28;20062;-65
2023/05/30 05:08:00;;;;;;;11.98;2.15;;;11.20;99.90;;;;;;4989118;28;20100;-65
2023/05/30 05:10:27;;;;;;;7.85;1.90;;;11.20;99.90;;;;;;4986702;28;20485;-65
2023/05/30 05:12:53;;;;;;;9.65;1.83;;;11.20;99.90;;;;;;4989075;28;20556;-65
2023/05/30 05:15:19;;;;;;;7.28;2.40;;;11.20;99.90;;;;;;4984996;28;20050;-65
2023/05/30 05:17:45;;;;;;;4.78;1.55;;;11.20;99.90;;;;;;4988040;28;20142;-65
2023/05/30 05:20:12;;;;;;;13.18;2.03;;;11.30;99.90;;;;;;4987973;28;20058;-65
2023/05/30 05:22:37;;;;;;;9.32;1.75;;;11.30;99.90;;;;;;4988025;28;20050;-65
2023/05/30 05:25:07;;;;;;;9.93;2.10;;;11.30;99.90;;;;;;4985921;28;20590;-65
2023/05/30 05:27:33;;;;;;;8.40;1.77;;;11.30;99.90;;;;;;4985141;28;20131;-65
2023/05/30 05:29:59;;;;;;;6.32;1.77;;;11.30;99.90;;;;;;4987333;28;20050;-65
2023/05/30 05:32:25;;;;;;;6.95;2.00;;;11.40;99.90;;;;;;4975358;28;20505;-65
2023/05/30 05:34:52;;;;;;;6.60;1.73;;;11.40;99.90;;;;;;4985203;28;20038;-65
2023/05/30 05:37:18;;;;;;;7.72;1.73;;;11.40;99.90;;;;;;4967193;28;20049;-65
2023/05/30 05:39:44;;;;;;;10.00;2.30;;;11.40;99.90;;;;;;4983416;28;20054;-64
2023/05/30 05:42:10;;;;;;;7.38;1.77;;;11.40;99.90;;;;;;4974785;28;20466;-65
2023/05/30 05:44:35;;;;;;;10.05;2.53;;;11.30;99.90;;;;;;4975235;28;20093;-65
2023/05/30 05:47:01;;;;;;;6.30;1.40;;;11.30;99.90;;;;;;4990707;28;20046;-65
2023/05/30 05:49:27;;;;;;;7.10;2.08;;;11.40;99.90;;;;;;4976103;28;20449;-65
2023/05/30 05:51:53;;;;;;;14.02;2.30;;;11.40;99.90;;;;;;4963508;28;20027;-65
2023/05/30 05:54:19;;;;;;;8.98;1.75;;;11.40;99.90;;;;;;4976142;28;20533;-65
2023/05/30 05:56:46;;;;;;;6.63;1.73;;;11.40;99.90;;;;;;4975384;28;20416;-65
2023/05/30 05:59:12;;;;;;;6.10;1.75;;;11.50;99.90;;;;;;4983114;28;20471;-64
2023/05/30 06:01:39;;;;;;;10.85;1.70;;;11.50;99.90;;;;;;4967979;28;20501;-65
2023/05/30 06:04:11;;;;;;;8.82;2.40;;;11.50;99.90;;;;;;4969213;28;20077;-64
2023/05/30 06:06:38;;;;;;;5.97;2.00;;;11.50;99.90;;;;;;4966770;28;20053;-64
2023/05/30 06:09:04;;;;;;;5.88;1.70;;;11.50;99.90;;;;;;4968657;28;20413;-65
2023/05/30 06:11:30;;;;;;;7.07;1.50;;;11.50;99.90;;;;;;4977900;28;20077;-64
2023/05/30 06:13:58;;;;;;;9.75;1.88;;;11.60;99.90;;;;;;4967974;28;20126;-65
2023/05/30 06:16:23;;;;;;;12.20;1.80;;;11.60;99.90;;;;;;4958070;28;20125;-64
2023/05/30 06:18:49;;;;;;;8.82;1.95;;;11.70;99.90;;;;;;4983296;28;20100;-64
2023/05/30 06:21:15;;;;;;;8.30;1.73;;;11.70;99.90;;;;;;4972782;28;20581;-65
2023/05/30 06:23:41;;;;;;;3.10;1.10;;;11.60;99.90;;;;;;4977180;28;20077;-65
2023/05/30 06:26:06;;;;;;;5.15;1.00;;;11.60;99.90;;;;;;4982803;28;20133;-65
2023/05/30 06:28:32;;;;;;;5.45;2.40;;;11.70;99.90;;;;;;4986308;28;20047;-65
2023/05/30 06:30:58;;;;;;;7.78;2.70;;;11.70;99.90;;;;;;4975492;28;20452;-64
2023/05/30 06:33:24;;;;;;;3.00;1.10;;;11.80;99.90;;;;;;4971370;28;20054;-64
2023/05/30 06:35:50;;;;;;;6.65;1.30;;;11.70;99.90;;;;;;4977143;28;20062;-66
2023/05/30 06:38:20;;;;;;;7.60;1.80;;;11.70;99.90;;;;;;4966711;28;20429;-66
2023/05/30 06:40:46;;;;;;;3.95;1.52;;;11.60;99.90;;;;;;4982473;28;20119;-65
2023/05/30 06:43:11;;;;;;;10.88;1.50;;;11.50;99.90;;;;;;4971734;28;20085;-65
2023/05/30 06:45:37;;;;;;;9.75;1.77;;;11.60;99.90;;;;;;4971712;28;20078;-65
2023/05/30 06:48:04;;;;;;;4.05;1.73;;;11.60;99.90;;;;;;4977589;28;20050;-65
2023/05/30 06:50:30;;;;;;;11.30;2.20;;;11.60;99.90;;;;;;4974841;28;20121;-65
2023/05/30 06:52:56;;;;;;;7.05;1.38;;;11.50;99.90;;;;;;4981348;28;20130;-65
2023/05/30 06:55:22;;;;;;;7.80;1.30;;;11.50;99.90;;;;;;4974269;28;20081;-65
2023/05/30 06:57:53;;;;;;;10.18;1.60;;;11.60;99.90;;;;;;4963710;28;20130;-65
2023/05/30 07:00:20;;;;;;;10.23;1.50;;;11.60;99.90;;;;;;5004936;28;20050;-65
2023/05/30 07:02:46;;;;;;;2.72;1.20;;;11.60;99.90;;;;;;4969058;28;20046;-65
2023/05/30 07:05:12;;;;;;;7.93;1.50;;;11.70;99.90;;;;;;4963728;28;20055;-65
2023/05/30 07:07:39;;;;;;;5.00;1.40;;;11.70;99.90;;;;;;4974829;28;20034;-65
2023/05/30 07:10:06;;;;;;;7.93;1.63;;;11.80;99.90;;;;;;4971521;28;20039;-65
2023/05/30 07:12:33;;;;;;;8.95;1.58;;;11.80;99.90;;;;;;4967801;28;20497;-65
2023/05/30 07:14:58;;;;;;;4.97;1.13;;;11.70;99.90;;;;;;4968584;28;20066;-66
2023/05/30 07:17:24;;;;;;;3.40;0.85;;;11.70;99.90;;;;;;4968089;28;20143;-65
2023/05/30 07:19:50;;;;;;;5.68;0.90;;;11.70;99.90;;;;;;4985046;28;20042;-65
2023/05/30 07:22:16;;;;;;;7.65;0.90;;;11.70;99.90;;;;;;4978143;28;20073;-65
2023/05/30 07:24:42;;;;;;;0.57;0.30;;;11.70;99.90;;;;;;4973939;28;20117;-65
2023/05/30 07:27:08;;;;;;;2.42;0.47;;;11.70;99.90;;;;;;4974191;28;20186;-66
2023/05/30 07:29:34;;;;;;;0.55;0.17;;;11.70;99.90;;;;;;4976399;28;20097;-66
2023/05/30 07:31:59;;;;;;;0.30;0.30;;;11.70;99.90;;;;;;4965757;28;20298;-65
2023/05/30 07:34:25;;;;;;;2.65;0.30;;;11.70;99.90;;;;;;4965969;28;20047;-64
2023/05/30 07:36:51;;;;;;;3.35;0.65;;;11.80;99.90;;;;;;4961845;28;20039;-65
2023/05/30 07:39:17;;;;;;;1.10;0.40;;;11.80;99.90;;;;;;4977978;28;20038;-65
2023/05/30 07:41:42;;;;;;;0.35;0.32;;;12.00;99.90;;;;;;4967424;28;20042;-65
2023/05/30 07:44:08;;;;;;;1.17;0.38;;;12.10;99.90;;;;;;4970727;28;20403;-65
2023/05/30 07:46:34;;;;;;;1.63;0.40;;;12.20;99.90;;;;;;4972614;28;20043;-65
2023/05/30 07:49:00;;;;;;;2.42;0.40;;;12.30;99.90;;;;;;4976323;28;20173;-65
2023/05/30 07:51:26;;;;;;;0.55;0.40;;;12.50;99.90;;;;;;4965094;28;20126;-66
2023/05/30 07:53:51;;;;;;;1.55;0.25;;;12.70;99.90;;;;;;4964657;28;20062;-66
2023/05/30 07:56:17;;;;;;;2.42;0.30;;;12.90;99.90;;;;;;4959621;28;20042;-65
2023/05/30 07:58:43;;;;;;;1.48;0.40;;;12.90;99.90;;;;;;4948301;28;20386;-65
2023/05/30 08:01:09;;;;;;;1.80;0.50;;;12.90;99.90;;;;;;4978619;28;20093;-64
2023/05/30 08:03:34;;;;;;;1.35;0.20;;;12.90;99.90;;;;;;4972002;28;20125;-65
2023/05/30 08:06:00;;;;;;;1.15;0.30;;;13.30;99.90;;;;;;4980937;28;20135;-65
2023/05/30 08:08:26;;;;;;;1.55;0.40;;;13.70;99.90;;;;;;4977260;28;20057;-65
2023/05/30 08:10:52;;;;;;;2.13;0.50;;;13.70;98.70;;;;;;4993905;28;20043;-66
2023/05/30 08:13:18;;;;;;;2.83;0.43;;;13.60;96.80;;;;;;4966656;28;20504;-65
2023/05/30 08:15:45;;;;;;;0.52;0.35;;;13.50;97.00;;;;;;4967206;28;20491;-65
2023/05/30 08:18:11;;;;;;;2.50;0.55;;;13.40;98.30;;;;;;4985131;28;20149;-65
2023/05/30 08:20:37;;;;;;;0.80;0.15;;;13.40;99.10;;;;;;4959874;28;20482;-65
2023/05/30 08:23:06;;;;;;;1.48;0.40;;;13.30;98.80;;;;;;4953303;28;20182;-65
2023/05/30 08:25:36;;;;;;;0.40;0.20;;;13.90;99.70;;;;;;4979326;28;20065;-65
2023/05/30 08:28:02;;;;;;;;;;;14.30;91.60;;;;;;4984593;28;20061;-65
2023/05/30 08:30:28;;;;;;;3.40;0.35;;;14.30;91.30;;;;;;4984420;28;19926;-65
2023/05/30 08:32:55;;;;;;;0.65;0.30;;;14.20;87.10;;;;;;4979641;28;20045;-65
2023/05/30 08:35:21;;;;;;;1.85;0.20;;;14.10;89.90;;;;;;4986310;28;20124;-65
2023/05/30 08:37:47;;;;;;;0.50;0.20;;;13.80;90.10;;;;;;4984515;28;20296;-67
2023/05/30 08:40:21;;;;;;;2.20;0.45;;;13.60;93.70;;;;;;4979203;28;20382;-65
2023/05/30 08:42:47;;;;;;;2.42;0.68;;;13.40;98.00;;;;;;4984948;28;20413;-65
2023/05/30 08:45:13;;;;;;;1.20;0.30;;;13.10;99.90;;;;;;4975207;28;20050;-65
2023/05/30 08:47:39;;;;;;;0.73;0.40;;;13.00;99.90;;;;;;4971819;28;20050;-65
2023/05/30 08:50:08;;;;;;;0.77;0.28;;;12.70;99.90;;;;;;4982245;28;20043;-64
2023/05/30 08:52:38;;;;;;;1.02;0.25;;;12.60;99.90;;;;;;4980347;28;20046;-64
2023/05/30 08:55:16;;;;;;;3.03;0.30;;;12.70;99.90;;;;;;4976846;28;20433;-65
2023/05/30 08:58:04;;;;;;;2.37;0.30;;;12.80;99.90;;;;;;4964633;28;20046;-64
2023/05/30 09:00:34;;;;;;;3.20;0.63;;;12.80;99.90;;;;;;4979774;28;20046;-65
2023/05/30 09:03:02;;;;;;;1.65;0.38;;;13.00;99.90;;;;;;4973109;28;20462;-65
2023/05/30 09:05:29;;;;;;;0.88;0.32;;;13.40;99.90;;;;;;4982220;28;20058;-65
2023/05/30 09:07:56;;;;;;;0.40;0.40;;;13.50;99.90;;;;;;4977892;28;20078;-66
2023/05/30 09:10:22;;;;;;;1.45;0.47;;;13.60;99.90;;;;;;4984759;28;20523;-65
2023/05/30 09:12:48;;;;;;;0.70;0.30;;;13.60;97.60;;;;;;4983849;28;20041;-65
2023/05/30 09:15:15;;;;;;;1.45;0.70;;;13.60;94.50;;;;;;4974651;28;20039;-65
2023/05/30 09:17:41;;;;;;;0.95;0.90;;;13.60;94.80;;;;;;4975387;28;20089;-65
2023/05/30 09:20:10;;;;;;;1.30;0.60;;;13.90;98.40;;;;;;4980297;28;20489;-65
2023/05/30 09:22:36;;;;;;;3.20;0.50;;;14.10;94.00;;;;;;4970687;28;20077;-65
2023/05/30 09:25:03;;;;;;;0.35;0.35;;;14.10;89.30;;;;;;4968009;28;20126;-65
2023/05/30 09:27:35;;;;;;;0.30;0.30;;;14.10;87.90;;;;;;4966811;28;20046;-66
2023/05/30 09:30:10;;;;;;;0.35;0.30;;;14.30;87.20;;;;;;4966744;28;20047;-66
2023/05/30 09:32:39;;;;;;;2.80;0.50;;;14.50;89.20;;;;;;4973483;28;20039;-66
2023/05/30 09:35:09;;;;;;;2.30;0.52;;;14.50;90.00;;;;;;4998088;28;20397;-66
2023/05/30 09:37:41;;;;;;;0.35;0.30;;;14.50;82.30;;;;;;4966855;28;20055;-67
2023/05/30 09:40:11;;;;;;;0.60;0.30;;;14.30;72.70;;;;;;4972615;28;20042;-64
2023/05/30 09:42:44;;;;;;;1.73;0.50;;;14.20;81.90;;;;;;4978877;28;20074;-66
2023/05/30 09:45:13;;;;;;;2.35;0.20;;;14.30;90.80;;;;;;4969704;28;20043;-66
2023/05/30 09:47:40;;;;;;;0.20;0.20;;;14.10;84.60;;;;;;4967907;28;20050;-67
2023/05/30 09:50:07;;;;;;;1.33;0.30;;;14.10;88.70;;;;;;4967427;28;20035;-66
2023/05/30 09:52:34;;;;;;;2.17;0.35;;;14.10;92.00;;;;;;4969863;28;20046;-66
2023/05/30 09:55:05;;;;;;;1.73;0.60;;;14.10;91.10;;;;;;4965719;28;20113;-66
2023/05/30 09:57:38;;;;;;;3.35;0.47;;;14.00;92.10;;;;;;4969316;28;20456;-66
2023/05/30 10:00:09;;;;;;;0.50;0.50;;;13.90;94.40;;;;;;4965709;28;20043;-67
2023/05/30 10:02:40;;;;;;;0.85;0.30;;;13.80;98.40;;;;;;4974064;28;20034;-67
2023/05/30 10:05:20;;;;;;;2.42;0.45;;;13.70;98.00;;;;;;4975916;28;20149;-66
2023/05/30 10:07:49;;;;;;;0.63;0.30;;;13.60;98.10;;;;;;4978731;28;20088;-66
2023/05/30 10:10:16;;;;;;;3.08;0.50;;;13.50;99.90;;;;;;4982771;28;20051;-66
2023/05/30 10:13:02;;;;;;;1.00;0.30;;;13.50;99.90;;;;;;4963989;28;20055;-66
2023/05/30 10:15:31;;;;;;;5.03;0.43;;;13.40;99.90;;;;;;4966240;28;20105;-66
2023/05/30 10:18:16;;;;;;;0.20;0.20;;;13.70;99.90;;;;;;4968903;28;20046;-66
2023/05/30 10:20:44;;;;;;;0.95;0.30;;;14.20;99.90;;;;;;4972849;28;20058;-66
2023/05/30 10:23:15;;;;;;;0.80;0.30;;;14.30;96.60;;;;;;4954548;28;20150;-66
2023/05/30 10:25:46;;;;;;;0.55;0.30;;;14.30;92.30;;;;;;4967191;28;20093;-66
2023/05/30 10:28:18;;;;;;;0.47;0.20;;;14.20;95.30;;;;;;4981914;28;20226;-66
2023/05/30 10:30:51;;;;;;;2.20;0.85;;;14.20;94.30;;;;;;4965707;28;20043;-65
2023/05/30 10:33:20;;;;;;;1.02;0.20;;;14.10;94.40;;;;;;4963677;28;20118;-66
2023/05/30 10:35:46;;;;;;;0.47;0.20;;;14.10;95.50;;;;;;4966665;28;20042;-66
2023/05/30 10:38:13;;;;;;;1.02;0.38;;;14.00;97.60;;;;;;4966348;28;20054;-66
2023/05/30 10:41:06;;;;;;;4.70;0.50;;;14.00;99.10;;;;;;4966849;28;20129;-66
2023/05/30 10:43:38;;;;;;;0.30;0.30;;;13.80;98.90;;;;;;4955907;28;20150;-65
2023/05/30 10:46:28;;;;;;;1.27;0.20;;;13.70;99.90;;;;;;4973061;28;20046;-64
2023/05/30 10:49:06;;;;;;;0.47;0.40;;;13.60;99.90;;;;;;4688983;28;318961;-63
2023/05/30 10:51:58;;;;;;;0.45;0.45;;;13.50;99.90;;;;;;4767060;28;2195484;-64
2023/05/30 10:54:28;;;;;;;1.60;0.30;;;13.50;99.90;;;;;;4955899;28;20050;-66
2023/05/30 10:57:01;;;;;;;0.47;0.32;;;13.40;99.90;;;;;;4984087;28;20121;-64
2023/05/30 10:59:27;;;;;;;0.30;0.30;;;13.50;99.90;;;;;;4966255;28;20175;-64
2023/05/30 11:02:00;;;;;;;0.47;0.32;;;13.50;99.10;;;;;;4977773;28;20046;-65
2023/05/30 11:04:35;;;;;;;0.98;0.40;;;13.60;99.90;;;;;;4983916;28;20046;-65
2023/05/30 11:07:20;;;;;;;0.50;0.50;;;13.70;99.90;;;;;;4995572;28;20039;-65
2023/05/30 11:10:07;;;;;;;0.70;0.40;;;13.80;97.00;;;;;;4995642;28;20042;-65
2023/05/30 11:12:48;;;;;;;0.40;0.40;;;14.00;99.90;;;;;;4991690;28;20043;-65
2023/05/30 11:15:29;;;;;;;0.70;0.32;;;14.20;99.90;;;;;;4982438;28;20050;-65
2023/05/30 11:18:27;;;;;;;1.13;0.40;;;14.40;98.90;;;;;;4978228;28;20058;-65
2023/05/30 11:20:54;;;;;;;0.57;0.43;;;14.50;92.50;;;;;;4977847;28;20129;-65
2023/05/30 11:23:24;;;;;;;0.45;0.20;;;14.50;93.60;;;;;;4975330;28;20508;-65
2023/05/30 11:25:53;;;;;;;1.80;0.20;;;14.40;92.50;;;;;;4979961;28;20516;-65
2023/05/30 11:28:40;;;;;;;0.55;0.55;;;14.40;92.80;;;;;;4978405;28;20134;-65
2023/05/30 11:31:52;;;;;;;0.20;0.20;;;14.30;94.80;;;;;;4982595;28;20126;-65
2023/05/30 11:34:37;;;;;;;1.00;0.40;;;14.10;93.80;;;;;;4970763;28;20046;-64
2023/05/30 11:37:04;;;;;;;0.82;0.43;;;14.10;95.30;;;;;;4979012;28;20042;-65
2023/05/30 11:39:34;;;;;;;1.30;0.55;;;14.00;97.00;;;;;;4969246;28;20053;-65
2023/05/30 11:42:02;;;;;;;0.20;0.20;;;13.90;98.50;;;;;;4974117;28;20042;-65
2023/05/30 11:44:30;;;;;;;6.63;0.40;;;13.80;98.40;;;;;;4966139;28;20532;-65
2023/05/30 11:47:04;;;;;;;1.20;0.40;;;13.70;99.20;;;;;;4970940;28;20049;-66
2023/05/30 11:49:31;;;;;;;0.98;0.55;;;13.70;99.90;;;;;;4972129;28;20501;-65
2023/05/30 11:52:06;;;;;;;1.10;0.40;;;13.70;99.90;;;;;;4982180;28;20050;-66
2023/05/30 11:54:32;;;;;;;0.75;0.40;;;13.70;98.40;;;;;;4961194;28;20034;-65
2023/05/30 11:56:58;;;;;;;0.68;0.30;;;13.70;99.60;;;;;;4968990;28;20548;-65
2023/05/30 12:02:12;;;;;;;1.63;0.40;;;13.70;99.90;;;;;;3330686;26;20050;-66
2023/05/30 12:04:38;;;;;;;1.48;0.47;;;13.80;99.90;;;;;;4997965;28;20524;-66
2023/05/30 12:07:07;;;;;;;0.40;0.40;;;13.90;99.90;;;;;;5007775;28;20046;-65
2023/05/30 12:09:41;;;;;;;1.85;0.50;;;13.90;99.90;;;;;;5002019;28;20041;-65
2023/05/30 12:12:08;;;;;;;0.98;0.40;;;13.90;98.90;;;;;;5010057;28;20053;-65
2023/05/30 12:18:16;;;;;;;1.15;0.43;;;14.00;99.60;;;;;;5026704;23;20048;-66
2023/05/30 12:20:43;;;;;;;0.52;0.30;;;14.00;97.70;;;;;;5029686;28;20056;-65
2023/05/30 12:23:12;;;;;;;0.40;0.32;;;14.00;98.60;;;;;;5033188;28;20067;-65
2023/05/30 12:25:38;;;;;;;0.30;0.30;;;14.10;99.10;;;;;;5013303;28;20064;-65
2023/05/30 12:28:20;;;;;;;1.58;0.47;;;14.20;98.70;;;;;;5008859;28;20411;-66
2023/05/30 12:30:46;;;;;;;1.38;0.60;;;14.30;97.70;;;;;;5025567;28;20046;-65
2023/05/30 12:33:23;;;;;;;2.30;0.70;;;14.30;96.70;;;;;;4995237;28;20115;-65
2023/05/30 12:35:54;;;;;;;3.17;1.40;;;14.40;97.40;;;;;;5030328;28;20045;-65
2023/05/30 12:38:58;;;;;;;15.43;3.13;;;14.30;96.10;;;;;;5028885;28;20492;-65
2023/05/30 12:41:31;;;;;;;39.20;6.70;;;14.30;99.80;;;;;;5029454;28;20038;-65
2023/05/30 12:44:05;;;;;;;0.68;0.68;;;14.30;95.20;;;;;;5012557;28;20064;-65
2023/05/30 12:46:33;;;;;;;0.63;0.35;;;14.20;95.70;;;;;;5006183;28;20381;-64
2023/05/30 12:49:00;;;;;;;0.98;0.40;;;14.20;98.40;;;;;;5030338;28;20053;-65
2023/05/30 12:51:28;;;;;;;0.90;0.40;;;14.30;99.90;;;;;;5033009;28;20053;-65
2023/05/30 12:53:54;;;;;;;2.75;0.55;;;14.30;99.90;;;;;;5046156;23;20053;-65
2023/05/30 12:56:20;;;;;;;0.68;0.40;;;14.30;99.90;;;;;;5028559;28;20049;-65
2023/05/30 12:58:55;;;;;;;2.05;0.52;;;14.30;99.90;;;;;;5015201;28;20429;-65